Time;durP1;ratioP1;P1;durP2;ratioP2;P2;SDS_P1;SDS_P2;PMS_P1;PMS_P2;Temp;Humidity;BMP_temperature;BMP_pressure;BME280_temperature;BME280_humidity;BME280_pressure;Samples;Min_cycle;Max_cycle;Signal;HPM_P1;HPM_P2
2022/07/06 00:02:22;;;;;;;12.38;3.88;;;;;;;14.90;67.75;100154.28;5118889;27;20069;-58
2022/07/06 00:04:48;;;;;;;12.45;4.53;;;;;;;14.94;68.25;100155.44;5122668;27;20032;-58
2022/07/06 00:07:13;;;;;;;10.25;4.20;;;;;;;14.83;67.82;100151.78;5122092;27;20035;-57
2022/07/06 00:09:40;;;;;;;10.52;4.07;;;;;;;14.67;68.67;100152.63;5127784;27;20030;-57
2022/07/06 00:12:06;;;;;;;12.13;4.25;;;;;;;14.58;68.62;100151.41;5117413;27;20095;-57
2022/07/06 00:14:31;;;;;;;13.93;4.70;;;;;;;14.58;68.68;100148.72;5118584;27;20038;-57
2022/07/06 00:16:57;;;;;;;12.73;4.50;;;;;;;14.63;68.34;100146.09;5122433;27;20031;-57
2022/07/06 00:19:22;;;;;;;10.60;4.13;;;;;;;14.57;68.51;100149.75;5117461;27;20046;-57
2022/07/06 00:21:47;;;;;;;9.10;4.18;;;;;;;14.59;68.75;100145.75;5124808;27;20467;-57
2022/07/06 00:24:13;;;;;;;10.77;4.10;;;;;;;14.45;68.46;100147.13;5116045;27;20023;-57
2022/07/06 00:26:38;;;;;;;10.55;4.20;;;;;;;14.35;68.82;100153.19;5121375;27;20556;-58
2022/07/06 00:29:04;;;;;;;11.65;4.10;;;;;;;14.45;68.36;100153.34;5113364;27;20070;-57
2022/07/06 00:31:29;;;;;;;14.23;4.40;;;;;;;14.43;68.49;100150.06;5118983;27;20457;-57
2022/07/06 00:33:55;;;;;;;17.52;4.88;;;;;;;14.28;69.06;100155.22;5118897;27;20106;-57
2022/07/06 00:36:20;;;;;;;10.27;4.57;;;;;;;14.32;68.97;100150.97;5122584;27;20027;-57
2022/07/06 00:38:45;;;;;;;12.32;4.65;;;;;;;14.31;68.92;100152.03;5120042;27;20023;-57
2022/07/06 00:41:15;;;;;;;12.13;4.88;;;;;;;14.19;69.43;100151.28;5116140;27;20474;-57
2022/07/06 00:43:55;;;;;;;9.30;4.03;;;;;;;14.18;69.36;100155.06;5123522;27;20119;-57
2022/07/06 00:46:26;;;;;;;;;;;;;;;14.29;69.12;100154.16;5121265;27;20038;-57
2022/07/06 00:48:51;;;;;;;11.95;4.50;;;;;;;14.36;68.99;100152.13;5125931;27;19912;-57
2022/07/06 00:51:17;;;;;;;9.90;4.10;;;;;;;14.22;69.23;100150.78;5110380;27;20026;-57
2022/07/06 00:53:42;;;;;;;15.35;4.32;;;;;;;14.12;69.80;100146.03;5084084;28;20031;-57
2022/07/06 00:56:08;;;;;;;13.32;4.30;;;;;;;14.10;70.02;100152.72;5117874;27;20028;-56
2022/07/06 00:58:34;;;;;;;15.95;4.03;;;;;;;14.02;70.38;100149.38;5118730;27;20032;-57
2022/07/06 01:00:59;;;;;;;7.68;3.67;;;;;;;14.00;70.55;100148.81;5108040;27;20446;-57
2022/07/06 01:03:24;;;;;;;7.70;3.75;;;;;;;14.14;70.45;100151.19;5118500;27;20026;-57
2022/07/06 01:05:50;;;;;;;11.07;4.38;;;;;;;13.89;70.89;100151.56;5117285;27;20404;-57
2022/07/06 01:08:16;;;;;;;10.68;4.18;;;;;;;13.86;70.84;100146.66;5124772;27;20023;-57
2022/07/06 01:10:41;;;;;;;12.40;4.20;;;;;;;13.92;71.20;100151.88;5104347;27;20027;-56
2022/07/06 01:13:06;;;;;;;8.15;4.00;;;;;;;13.90;72.32;100154.00;5117981;27;20396;-57
2022/07/06 01:15:32;;;;;;;13.80;4.90;;;;;;;13.92;70.77;100151.88;5116841;27;20038;-57
2022/07/06 01:17:57;;;;;;;12.07;4.32;;;;;;;13.88;71.84;100161.53;5119169;27;20031;-57
2022/07/06 01:20:24;;;;;;;9.60;4.30;;;;;;;13.76;71.66;100158.06;5095097;27;20023;-57
2022/07/06 01:22:50;;;;;;;12.68;4.15;;;;;;;13.61;72.46;100155.91;5115415;27;20031;-57
2022/07/06 01:25:16;;;;;;;12.82;3.75;;;;;;;13.57;71.91;100150.16;5096376;27;20650;-57
2022/07/06 01:27:41;;;;;;;16.88;3.88;;;;;;;13.59;72.55;100150.75;5117464;27;20031;-57
2022/07/06 01:30:08;;;;;;;9.60;3.83;;;;;;;13.54;71.65;100144.44;5121799;27;20633;-57
2022/07/06 01:32:34;;;;;;;16.45;4.45;;;;;;;13.41;71.85;100137.47;5121623;27;20046;-56
2022/07/06 01:35:00;;;;;;;9.30;3.92;;;;;;;13.35;72.74;100135.72;5118032;27;20023;-57
2022/07/06 01:37:25;;;;;;;11.40;3.67;;;;;;;13.32;72.40;100141.56;5116043;27;20015;-56
2022/07/06 01:39:50;;;;;;;13.50;3.95;;;;;;;13.34;72.29;100134.91;5117418;27;20409;-57
2022/07/06 01:42:17;;;;;;;8.63;3.50;;;;;;;13.20;72.10;100136.19;5113734;27;20367;-56
2022/07/06 01:44:43;;;;;;;11.50;4.15;;;;;;;13.31;72.10;100137.25;5095860;27;20034;-57
2022/07/06 01:47:08;;;;;;;9.40;3.55;;;;;;;13.14;72.01;100146.03;5114898;27;20028;-57
2022/07/06 01:49:34;;;;;;;17.23;4.30;;;;;;;13.13;71.73;100144.41;5097388;27;20016;-57
2022/07/06 01:51:59;;;;;;;11.05;3.70;;;;;;;13.02;71.18;100144.41;5122056;27;20031;-57
2022/07/06 01:54:24;;;;;;;7.07;3.05;;;;;;;12.97;71.94;100145.13;5111295;28;20020;-57
2022/07/06 01:56:50;;;;;;;12.95;3.97;;;;;;;12.96;71.78;100146.19;5116417;27;20369;-57
2022/07/06 01:59:15;;;;;;;8.88;3.53;;;;;;;13.00;71.07;100144.63;5103474;27;20031;-58
2022/07/06 02:01:40;;;;;;;9.52;3.40;;;;;;;13.01;71.71;100146.28;5097521;27;20031;-57
2022/07/06 02:04:06;;;;;;;7.82;3.50;;;;;;;13.02;71.20;100156.00;5120540;27;20027;-57
2022/07/06 02:06:31;;;;;;;9.07;3.95;;;;;;;13.01;71.00;100151.69;5122685;27;20031;-57
2022/07/06 02:08:57;;;;;;;6.88;3.65;;;;;;;12.92;71.34;100153.06;5118324;27;20023;-57
2022/07/06 02:11:23;;;;;;;12.68;3.92;;;;;;;12.83;71.40;100155.31;5114048;27;20483;-57
2022/07/06 02:13:48;;;;;;;10.40;3.60;;;;;;;12.81;71.80;100148.53;5115682;27;20024;-56
2022/07/06 02:16:13;;;;;;;6.63;3.40;;;;;;;12.80;71.05;100144.19;5117394;27;20023;-57
2022/07/06 02:18:39;;;;;;;10.00;3.70;;;;;;;12.70;71.69;100144.78;5116435;27;20022;-58
2022/07/06 02:21:04;;;;;;;8.52;3.92;;;;;;;12.71;72.04;100136.47;5089093;27;20122;-57
2022/07/06 02:23:30;;;;;;;10.00;3.72;;;;;;;12.71;71.22;100143.75;5098296;27;20043;-58
2022/07/06 02:25:55;;;;;;;12.38;4.00;;;;;;;12.69;71.16;100146.66;5119748;27;20035;-57
2022/07/06 02:28:21;;;;;;;9.50;3.83;;;;;;;12.66;71.47;100154.38;5117316;27;20042;-57
2022/07/06 02:30:46;;;;;;;15.35;4.20;;;;;;;12.45;71.82;100153.06;5115579;27;20035;-57
2022/07/06 02:33:11;;;;;;;8.75;4.63;;;;;;;12.46;72.06;100149.34;5120323;27;20023;-57
2022/07/06 02:35:41;;;;;;;14.18;4.68;;;;;;;12.55;71.70;100145.22;5115008;27;20031;-57
2022/07/06 02:38:07;;;;;;;8.85;3.80;;;;;;;12.46;71.63;100160.09;5097884;28;20051;-57
2022/07/06 02:40:32;;;;;;;13.48;4.78;;;;;;;12.44;71.51;100159.50;5115179;27;20105;-57
2022/07/06 02:42:58;;;;;;;16.60;3.97;;;;;;;12.37;71.65;100166.84;5120014;27;20020;-57
2022/07/06 02:45:23;;;;;;;9.60;4.30;;;;;;;12.28;71.71;100167.19;5119860;28;20058;-57
2022/07/06 02:47:50;;;;;;;11.07;4.40;;;;;;;12.27;71.45;100167.41;5120723;28;20389;-57
2022/07/06 02:50:16;;;;;;;13.95;4.45;;;;;;;12.28;71.52;100161.81;5113602;28;20032;-57
2022/07/06 02:52:41;;;;;;;15.00;4.57;;;;;;;12.23;71.74;100153.63;5121947;27;20485;-56
2022/07/06 02:55:07;;;;;;;10.23;4.25;;;;;;;12.14;72.27;100160.38;5119367;27;20031;-57
2022/07/06 02:57:33;;;;;;;10.18;4.18;;;;;;;12.10;71.93;100161.88;5124374;27;20029;-57
2022/07/06 02:59:58;;;;;;;12.98;4.15;;;;;;;12.31;71.96;100163.22;5116796;27;20027;-57
2022/07/06 03:02:23;;;;;;;9.52;3.85;;;;;;;12.13;71.86;100164.13;5127713;27;20039;-57
2022/07/06 03:04:49;;;;;;;13.35;3.85;;;;;;;12.21;73.06;100168.34;5127285;27;20034;-57
2022/07/06 03:07:15;;;;;;;8.73;4.20;;;;;;;12.04;72.72;100163.63;5124726;27;20139;-57
2022/07/06 03:09:40;;;;;;;34.42;6.75;;;;;;;12.04;72.66;100160.94;5120373;27;20023;-57
2022/07/06 03:12:06;;;;;;;11.80;5.63;;;;;;;12.03;72.24;100163.84;5122883;27;20035;-57
2022/07/06 03:14:32;;;;;;;13.88;5.53;;;;;;;12.02;72.27;100164.91;5120582;27;20030;-57
2022/07/06 03:16:57;;;;;;;12.48;5.50;;;;;;;12.05;72.07;100167.13;5102033;28;20028;-57
2022/07/06 03:19:23;;;;;;;13.77;5.30;;;;;;;12.02;72.81;100168.41;5129556;27;20042;-57
2022/07/06 03:21:48;;;;;;;8.70;4.25;;;;;;;11.98;72.39;100169.91;5118646;27;20039;-57
2022/07/06 03:24:13;;;;;;;9.25;4.47;;;;;;;11.94;72.44;100173.28;5120465;27;20381;-57
2022/07/06 03:26:39;;;;;;;7.75;3.97;;;;;;;12.03;72.97;100172.75;5124674;27;20019;-57
2022/07/06 03:29:04;;;;;;;8.80;4.55;;;;;;;11.76;73.44;100177.63;5124588;27;20031;-57
2022/07/06 03:31:30;;;;;;;11.82;4.72;;;;;;;12.01;72.39;100185.56;5119293;27;20024;-56
2022/07/06 03:33:55;;;;;;;10.70;5.18;;;;;;;12.07;73.17;100189.22;5118945;27;20358;-57
2022/07/06 03:36:20;;;;;;;7.15;4.18;;;;;;;11.91;73.40;100187.19;5119705;27;20015;-57
2022/07/06 03:38:46;;;;;;;9.85;4.80;;;;;;;11.97;72.88;100184.38;5130892;27;20473;-57
2022/07/06 03:41:11;;;;;;;12.15;5.05;;;;;;;11.94;73.09;100189.41;5122478;27;20617;-58
2022/07/06 03:43:37;;;;;;;11.20;5.05;;;;;;;11.99;72.70;100181.47;5099701;27;20032;-57
2022/07/06 03:46:03;;;;;;;14.45;4.85;;;;;;;12.34;71.59;100178.06;5119751;27;20028;-57
2022/07/06 03:48:28;;;;;;;9.15;4.60;;;;;;;12.71;70.01;100189.47;5124715;27;20354;-58
2022/07/06 03:50:54;;;;;;;7.13;4.68;;;;;;;13.14;69.03;100193.66;5118284;27;20028;-57
2022/07/06 03:53:20;;;;;;;11.10;4.28;;;;;;;13.19;68.70;100198.34;5100521;27;20023;-58
2022/07/06 03:56:27;;;;;;;10.13;4.13;;;;;;;13.91;66.41;100198.78;5120579;27;20039;-58
2022/07/06 03:58:33;;;;;;;9.48;4.10;;;;;;;14.53;64.39;100199.88;5118408;27;20431;-58
2022/07/06 04:00:59;;;;;;;12.20;3.92;;;;;;;15.38;61.09;100206.00;5122856;27;20079;-58
2022/07/06 04:03:24;;;;;;;6.13;3.63;;;;;;;15.24;61.09;100210.94;5118302;27;20031;-58
2022/07/06 04:05:49;;;;;;;7.75;3.63;;;;;;;14.61;64.21;100204.88;5121245;27;20031;-57
2022/07/06 04:08:15;;;;;;;11.27;3.78;;;;;;;15.19;62.04;100205.47;5120816;27;20023;-59
2022/07/06 04:10:40;;;;;;;7.95;3.30;;;;;;;14.23;65.02;100206.38;5113916;27;20023;-58
2022/07/06 04:13:06;;;;;;;8.98;3.95;;;;;;;14.01;65.61;100209.75;5121843;27;20031;-58
2022/07/06 04:15:31;;;;;;;11.38;3.70;;;;;;;13.70;66.85;100219.09;5095017;28;20035;-56
2022/07/06 04:17:57;;;;;;;6.95;3.85;;;;;;;13.89;66.94;100219.75;5128365;27;20031;-59
2022/07/06 04:20:23;;;;;;;13.07;4.07;;;;;;;13.64;68.11;100220.06;5121698;27;20023;-59
2022/07/06 04:22:49;;;;;;;8.82;4.03;;;;;;;13.77;66.85;100217.09;5122465;27;20027;-57
2022/07/06 04:25:14;;;;;;;9.52;4.00;;;;;;;14.49;64.91;100221.09;5121835;27;20526;-57
2022/07/06 04:27:40;;;;;;;12.88;3.95;;;;;;;15.49;61.73;100234.78;5124743;27;20043;-57
2022/07/06 04:30:07;;;;;;;11.82;3.60;;;;;;;16.43;58.37;100235.59;5122792;27;20019;-57
2022/07/06 04:32:32;;;;;;;14.60;4.10;;;;;;;17.95;53.37;100232.25;5122349;27;20153;-58
2022/07/06 04:34:58;;;;;;;10.25;3.65;;;;;;;17.98;52.89;100236.31;5118599;27;20024;-58
2022/07/06 04:37:23;;;;;;;9.52;3.28;;;;;;;19.10;49.88;100243.75;5119717;27;20029;-57
2022/07/06 04:39:48;;;;;;;10.60;4.10;;;;;;;19.89;47.83;100236.69;5121064;27;20019;-58
2022/07/06 04:42:14;;;;;;;9.75;3.78;;;;;;;20.75;46.03;100247.34;5112241;27;20027;-58
2022/07/06 04:44:39;;;;;;;11.73;3.00;;;;;;;19.42;47.73;100246.13;5104402;27;20044;-57
2022/07/06 04:47:05;;;;;;;9.55;3.10;;;;;;;20.92;45.40;100241.44;5122612;27;20073;-58
2022/07/06 04:49:30;;;;;;;10.13;3.08;;;;;;;20.63;45.67;100236.81;5106058;27;20102;-58
2022/07/06 04:51:56;;;;;;;8.13;3.53;;;;;;;21.22;44.61;100241.19;5104014;28;20024;-57
2022/07/06 04:54:21;;;;;;;7.13;2.92;;;;;;;19.49;48.39;100243.09;5123180;27;20053;-58
2022/07/06 04:56:47;;;;;;;16.50;3.40;;;;;;;21.08;44.14;100241.03;5119080;27;20482;-57
2022/07/06 04:59:13;;;;;;;8.70;3.10;;;;;;;21.54;43.18;100242.47;5120557;27;20023;-57
2022/07/06 05:01:38;;;;;;;10.85;2.80;;;;;;;18.49;49.83;100241.81;5099189;28;20412;-58
2022/07/06 05:04:04;;;;;;;8.07;2.85;;;;;;;18.77;51.35;100242.41;5097241;28;20027;-57
2022/07/06 05:06:29;;;;;;;8.65;3.13;;;;;;;17.57;53.94;100244.25;5104111;28;20024;-57
2022/07/06 05:08:55;;;;;;;9.75;3.00;;;;;;;17.70;53.11;100251.91;5093619;28;20019;-57
2022/07/06 05:11:20;;;;;;;14.70;3.42;;;;;;;16.54;57.66;100250.81;5096002;28;20090;-57
2022/07/06 05:13:45;;;;;;;9.30;3.13;;;;;;;17.17;56.95;100243.78;5095013;28;20080;-57
2022/07/06 05:16:11;;;;;;;8.70;3.35;;;;;;;17.50;54.57;100240.94;5097433;28;20035;-57
2022/07/06 05:18:36;;;;;;;7.30;3.22;;;;;;;18.32;53.00;100253.75;5100937;28;20374;-58
2022/07/06 05:21:02;;;;;;;8.73;3.00;;;;;;;16.75;56.47;100252.66;5099938;28;20039;-57
2022/07/06 05:23:28;;;;;;;10.32;2.70;;;;;;;16.56;59.68;100259.50;5079149;28;20433;-57
2022/07/06 05:25:53;;;;;;;11.77;3.80;;;;;;;15.17;62.07;100264.31;5103170;28;20028;-57
2022/07/06 05:28:18;;;;;;;15.02;3.88;;;;;;;15.09;63.16;100257.44;5095394;28;20889;-57
2022/07/06 05:30:44;;;;;;;12.50;3.50;;;;;;;14.85;63.93;100257.63;5097895;28;20031;-57
2022/07/06 05:33:09;;;;;;;11.13;3.53;;;;;;;14.97;64.21;100259.41;5096148;28;20098;-58
2022/07/06 05:35:35;;;;;;;16.80;3.72;;;;;;;15.14;62.71;100251.28;5098066;28;20028;-57
2022/07/06 05:38:00;;;;;;;10.10;3.95;;;;;;;14.56;63.94;100267.66;5098000;28;20119;-57
2022/07/06 05:40:26;;;;;;;8.13;3.88;;;;;;;14.93;63.31;100263.69;5102034;28;20016;-59
2022/07/06 05:42:51;;;;;;;8.48;3.53;;;;;;;15.15;62.96;100261.88;5095310;28;20040;-56
2022/07/06 05:45:16;;;;;;;10.27;3.75;;;;;;;15.16;62.64;100263.50;5096413;28;20059;-56
2022/07/06 05:50:26;;;;;;;9.57;3.35;;;;;;;14.48;65.18;100257.25;5096132;28;20089;-57
2022/07/06 05:52:56;;;;;;;10.48;3.80;;;;;;;14.51;65.90;100266.72;5076107;28;20040;-57
2022/07/06 05:55:21;;;;;;;16.67;3.67;;;;;;;14.80;64.51;100262.09;5094365;28;20513;-57
2022/07/06 05:57:47;;;;;;;12.20;3.20;;;;;;;14.49;65.77;100258.06;5092293;28;20040;-57
2022/07/06 06:00:12;;;;;;;11.25;3.35;;;;;;;15.01;64.65;100260.56;5093552;28;20027;-56
2022/07/06 06:02:41;;;;;;;10.38;3.30;;;;;;;15.43;63.66;100271.72;5114203;27;20096;-57
2022/07/06 06:05:07;;;;;;;13.60;3.97;;;;;;;15.34;63.63;100269.69;5098225;27;20059;-60
2022/07/06 06:07:36;;;;;;;16.00;3.33;;;;;;;15.29;63.30;100268.53;5120889;27;20023;-56
2022/07/06 06:10:09;;;;;;;10.00;3.67;;;;;;;15.19;63.60;100267.56;5113722;27;20465;-56
2022/07/06 06:12:35;;;;;;;7.68;3.30;;;;;;;14.61;64.84;100256.94;5122499;27;20031;-58
2022/07/06 06:15:00;;;;;;;9.13;3.13;;;;;;;14.85;64.67;100265.72;5122053;27;20084;-58
2022/07/06 06:17:26;;;;;;;8.25;3.40;;;;;;;14.78;65.14;100267.75;5114434;27;20062;-56
2022/07/06 06:19:51;;;;;;;11.10;3.50;;;;;;;15.18;64.17;100263.25;5114430;27;20105;-59
2022/07/06 06:22:17;;;;;;;13.75;3.40;;;;;;;14.92;64.66;100265.53;5119243;27;20034;-57
2022/07/06 06:24:42;;;;;;;8.07;3.40;;;;;;;14.98;64.63;100266.47;5114587;27;20042;-55
2022/07/06 06:27:08;;;;;;;6.75;3.20;;;;;;;14.92;64.25;100260.13;5113758;27;20472;-56
2022/07/06 06:29:33;;;;;;;8.63;3.38;;;;;;;15.26;63.82;100265.53;5114424;27;20032;-56
2022/07/06 06:31:58;;;;;;;5.82;3.00;;;;;;;15.35;63.53;100271.31;5122584;27;20016;-56
2022/07/06 06:34:24;;;;;;;10.23;3.55;;;;;;;15.56;63.02;100278.63;5095218;28;20027;-56
2022/07/06 06:36:49;;;;;;;7.30;2.97;;;;;;;15.69;61.73;100280.16;5115545;27;20024;-56
2022/07/06 06:39:15;;;;;;;11.65;3.30;;;;;;;15.05;64.18;100272.47;5101715;28;20380;-58
2022/07/06 06:41:40;;;;;;;14.07;3.20;;;;;;;15.39;64.03;100277.84;5116140;27;20485;-58
2022/07/06 06:44:05;;;;;;;11.07;3.00;;;;;;;15.57;63.66;100285.66;5117151;27;20023;-58
2022/07/06 06:46:31;;;;;;;8.38;3.08;;;;;;;15.86;62.42;100285.53;5097339;28;20027;-58
2022/07/06 06:48:56;;;;;;;19.77;3.20;;;;;;;15.56;63.10;100289.44;5115401;28;20055;-57
2022/07/06 06:51:22;;;;;;;12.40;3.05;;;;;;;15.58;63.17;100289.22;5119223;28;20015;-57
2022/07/06 06:53:47;;;;;;;10.40;3.72;;;;;;;15.65;63.51;100295.22;5120624;28;20023;-58
2022/07/06 06:56:13;;;;;;;13.25;3.00;;;;;;;15.77;62.41;100297.84;5110778;28;20035;-58
2022/07/06 06:58:38;;;;;;;9.70;3.00;;;;;;;15.05;64.91;100294.09;5105768;28;20055;-58
2022/07/06 07:01:04;;;;;;;15.82;2.80;;;;;;;15.61;63.50;100296.81;5110435;28;20027;-58
2022/07/06 07:03:30;;;;;;;20.70;3.78;;;;;;;15.90;61.85;100294.75;5116917;28;20521;-58
2022/07/06 07:05:55;;;;;;;8.13;2.75;;;;;;;16.31;61.51;100301.47;5116562;28;20020;-57
2022/07/06 07:08:21;;;;;;;12.95;3.20;;;;;;;16.33;60.47;100295.81;5118164;28;20468;-57
2022/07/06 07:10:46;;;;;;;11.40;3.00;;;;;;;16.04;60.80;100287.91;5116355;28;20489;-55
2022/07/06 07:13:11;;;;;;;15.15;3.10;;;;;;;15.69;62.10;100302.63;5117848;28;20046;-57
2022/07/06 07:15:37;;;;;;;16.17;2.80;;;;;;;16.54;60.33;100303.06;5102894;28;20381;-57
2022/07/06 07:18:02;;;;;;;10.48;3.00;;;;;;;16.65;59.81;100305.84;5116562;28;20420;-57
2022/07/06 07:20:29;;;;;;;11.82;2.95;;;;;;;16.89;59.93;100306.38;5119000;28;20022;-57
2022/07/06 07:22:55;;;;;;;6.20;2.88;;;;;;;16.98;59.18;100305.66;5121388;28;20153;-57
2022/07/06 07:25:20;;;;;;;12.02;2.55;;;;;;;17.65;57.35;100293.38;5119544;28;20028;-57
2022/07/06 07:27:46;;;;;;;11.32;2.67;;;;;;;17.16;58.21;100306.31;5121649;28;20397;-57
2022/07/06 07:30:11;;;;;;;20.27;3.22;;;;;;;17.82;57.22;100301.34;5117019;28;20019;-57
2022/07/06 07:32:37;;;;;;;18.77;3.38;;;;;;;17.86;56.07;100301.63;5111738;28;20028;-57
2022/07/06 07:35:03;;;;;;;10.45;2.58;;;;;;;17.92;55.08;100305.16;5120299;28;20123;-57
2022/07/06 07:37:28;;;;;;;9.75;2.70;;;;;;;18.85;52.57;100299.72;5106204;27;20038;-57
2022/07/06 07:39:54;;;;;;;17.23;2.63;;;;;;;19.27;51.57;100300.50;5119623;27;20027;-57
2022/07/06 07:42:19;;;;;;;9.68;2.47;;;;;;;20.52;48.08;100304.13;5119136;27;20038;-56
2022/07/06 07:44:44;;;;;;;9.60;2.90;;;;;;;21.63;46.10;100306.19;5102669;28;20395;-57
2022/07/06 07:47:10;;;;;;;18.65;2.72;;;;;;;22.21;43.49;100305.25;5123213;27;20023;-57
2022/07/06 07:49:35;;;;;;;7.07;2.20;;;;;;;20.40;46.04;100307.19;5121078;27;20568;-56
2022/07/06 07:52:01;;;;;;;8.10;2.15;;;;;;;23.10;41.82;100309.13;5128933;27;20481;-57
2022/07/06 07:54:26;;;;;;;14.07;2.40;;;;;;;19.56;47.94;100304.25;5124977;27;20036;-57
2022/07/06 07:56:51;;;;;;;11.98;2.25;;;;;;;21.96;43.06;100303.63;5118603;27;20096;-57
2022/07/06 07:59:17;;;;;;;8.20;2.35;;;;;;;24.56;38.44;100293.91;5120940;27;20023;-57
2022/07/06 08:01:42;;;;;;;9.40;2.42;;;;;;;24.00;40.01;100296.75;5118965;27;20071;-55
2022/07/06 08:04:08;;;;;;;8.70;2.42;;;;;;;25.25;37.69;100290.84;5117847;27;20427;-55
2022/07/06 08:06:33;;;;;;;12.90;2.45;;;;;;;25.43;36.71;100302.72;5113709;27;20048;-55
2022/07/06 08:08:59;;;;;;;7.63;2.00;;;;;;;23.43;40.60;100297.03;5123724;27;20469;-55
2022/07/06 08:11:24;;;;;;;8.55;2.17;;;;;;;21.75;41.87;100292.97;5120321;27;20250;-55
2022/07/06 08:13:50;;;;;;;12.35;2.10;;;;;;;20.25;45.04;100282.78;5101246;27;20492;-55
2022/07/06 08:16:15;;;;;;;9.48;2.08;;;;;;;21.39;43.41;100299.91;5122038;27;20473;-57
2022/07/06 08:18:41;;;;;;;6.88;2.58;;;;;;;20.59;43.63;100287.50;5112231;27;20038;-56
2022/07/06 08:21:06;;;;;;;5.50;2.08;;;;;;;20.37;44.37;100285.97;5118427;27;20023;-56
2022/07/06 08:23:34;;;;;;;7.57;2.10;;;;;;;22.25;41.58;100289.09;5121976;27;20089;-56
2022/07/06 08:26:00;;;;;;;7.75;1.95;;;;;;;19.00;45.87;100279.09;5110566;27;20389;-55
2022/07/06 08:28:26;;;;;;;12.05;1.98;;;;;;;20.93;43.22;100286.69;5121089;27;20106;-57
2022/07/06 08:30:51;;;;;;;8.82;1.90;;;;;;;21.86;40.43;100284.66;5123875;27;20035;-57
2022/07/06 08:33:17;;;;;;;4.57;2.10;;;;;;;20.99;43.21;100282.81;5119872;27;20039;-56
2022/07/06 08:35:42;;;;;;;8.70;2.00;;;;;;;19.03;47.19;100284.78;5117765;27;20430;-57
2022/07/06 08:38:07;;;;;;;8.85;2.22;;;;;;;19.16;47.08;100283.41;5116847;27;20031;-57
2022/07/06 08:40:34;;;;;;;5.90;2.03;;;;;;;19.32;47.61;100282.31;5074616;28;20020;-57
2022/07/06 08:43:00;;;;;;;12.40;2.40;;;;;;;19.48;47.14;100284.97;5090688;28;20036;-57
2022/07/06 08:45:26;;;;;;;8.93;1.92;;;;;;;18.54;49.09;100286.06;5119589;27;20095;-57
2022/07/06 08:47:51;;;;;;;7.07;2.20;;;;;;;18.59;49.41;100279.84;5117493;27;20045;-56
2022/07/06 08:50:17;;;;;;;12.70;2.45;;;;;;;18.53;49.03;100286.34;5100441;27;20019;-56
2022/07/06 08:52:42;;;;;;;12.07;2.50;;;;;;;18.86;48.46;100287.75;5116434;27;20039;-57
2022/07/06 08:55:08;;;;;;;13.07;2.15;;;;;;;19.80;46.88;100281.91;5105242;27;20038;-55
2022/07/06 08:57:34;;;;;;;10.25;2.30;;;;;;;20.75;43.43;100286.28;5100504;27;20485;-56
2022/07/06 08:59:59;;;;;;;11.13;2.20;;;;;;;21.67;42.05;100282.72;5120831;27;20485;-57
2022/07/06 09:02:26;;;;;;;11.55;2.10;;;;;;;21.54;42.09;100292.41;5122066;27;20777;-57
2022/07/06 09:04:51;;;;;;;5.82;2.15;;;;;;;20.59;43.27;100287.50;5118707;27;20035;-55
2022/07/06 09:07:17;;;;;;;6.65;2.40;;;;;;;20.10;44.70;100280.97;5088490;27;20027;-56
2022/07/06 09:09:44;;;;;;;12.30;2.60;;;;;;;20.02;44.93;100276.91;5103398;27;20054;-56
2022/07/06 09:12:13;;;;;;;11.25;2.63;;;;;;;18.80;47.61;100277.19;5083585;28;20042;-57
2022/07/06 09:14:40;;;;;;;7.80;2.33;;;;;;;18.63;48.65;100280.94;5102861;28;20047;-56
2022/07/06 09:17:06;;;;;;;10.85;2.40;;;;;;;19.07;47.21;100274.16;5121492;27;20030;-58
2022/07/06 09:19:32;;;;;;;10.70;2.40;;;;;;;20.42;44.50;100280.50;5116656;27;20027;-54
2022/07/06 09:21:58;;;;;;;9.15;2.40;;;;;;;21.94;41.52;100275.81;5120490;27;20034;-54
2022/07/06 09:24:26;;;;;;;10.32;2.88;;;;;;;20.47;44.28;100272.31;5117866;27;20024;-55
2022/07/06 09:26:53;;;;;;;18.88;2.50;;;;;;;19.43;46.47;100266.78;5128304;27;20065;-55
2022/07/06 09:29:18;;;;;;;9.15;2.42;;;;;;;19.05;46.79;100260.88;5104763;27;20022;-55
2022/07/06 09:31:55;;;;;;;12.80;2.60;;;;;;;18.98;45.56;100273.09;5102786;27;20367;-58
2022/07/06 09:34:21;;;;;;;7.93;2.50;;;;;;;18.45;47.52;100273.31;5094346;27;20024;-56
2022/07/06 09:36:48;;;;;;;5.32;2.00;;;;;;;18.20;47.55;100277.59;5104841;27;20046;-54
2022/07/06 09:39:39;;;;;;;9.63;2.90;;;;;;;18.56;46.64;100274.94;5113621;27;20104;-56
2022/07/06 09:42:07;;;;;;;9.73;2.60;;;;;;;19.02;45.85;100277.72;5115849;27;20122;-55
2022/07/06 09:44:36;;;;;;;13.13;3.33;;;;;;;19.15;45.61;100281.78;5118691;27;20045;-57
2022/07/06 09:47:08;;;;;;;10.32;2.50;;;;;;;20.09;45.05;100286.69;5103253;27;20063;-55
2022/07/06 09:49:34;;;;;;;10.27;2.25;;;;;;;20.11;44.27;100295.38;5113885;27;20088;-57
2022/07/06 09:52:01;;;;;;;9.30;2.28;;;;;;;19.64;45.24;100289.25;5117289;27;20028;-57
2022/07/06 09:54:27;;;;;;;6.85;2.58;;;;;;;19.56;44.84;100287.13;5116062;27;20474;-58
2022/07/06 09:56:53;;;;;;;5.90;2.30;;;;;;;19.64;45.22;100283.81;5116068;27;20031;-57
2022/07/06 09:59:21;;;;;;;9.25;2.22;;;;;;;18.91;46.85;100292.38;5092926;28;20072;-58
2022/07/06 10:01:46;;;;;;;6.90;2.55;;;;;;;18.79;47.39;100289.94;5119001;27;20091;-54
2022/07/06 10:04:13;;;;;;;8.60;3.42;;;;;;;18.70;47.19;100283.41;5103041;27;20421;-55
2022/07/06 10:06:39;;;;;;;9.55;3.05;;;;;;;19.08;47.16;100287.47;5114711;27;20023;-55
2022/07/06 10:09:06;;;;;;;14.30;2.55;;;;;;;18.67;47.83;100276.59;5117987;27;20098;-55
2022/07/06 10:11:33;;;;;;;6.70;2.42;;;;;;;19.07;47.51;100283.16;5118503;27;20035;-54
2022/07/06 10:13:59;;;;;;;9.10;2.67;;;;;;;18.59;48.31;100284.44;5097838;28;20046;-57
2022/07/06 10:16:24;;;;;;;13.70;3.55;;;;;;;19.10;47.92;100290.75;5096289;28;20084;-54
2022/07/06 10:18:53;;;;;;;10.90;2.90;;;;;;;18.61;48.73;100288.53;5120896;27;20438;-57
2022/07/06 10:21:19;;;;;;;7.65;2.92;;;;;;;18.97;47.66;100280.44;5115698;27;20381;-57
2022/07/06 10:23:44;;;;;;;8.15;3.05;;;;;;;19.56;46.79;100287.94;5098248;28;20458;-55
2022/07/06 10:26:09;;;;;;;8.13;3.03;;;;;;;20.89;43.73;100291.88;5103292;27;20019;-58
2022/07/06 10:28:35;;;;;;;11.35;3.60;;;;;;;20.75;43.87;100291.75;5098233;27;20028;-55
2022/07/06 10:31:00;;;;;;;10.07;3.30;;;;;;;20.85;43.65;100288.94;5098811;28;20042;-58
2022/07/06 10:33:26;;;;;;;8.57;3.22;;;;;;;20.38;43.55;100282.16;5117568;27;20023;-56
2022/07/06 10:35:51;;;;;;;10.15;3.30;;;;;;;21.45;42.39;100285.16;5097915;28;20130;-56
2022/07/06 10:38:17;;;;;;;9.63;3.45;;;;;;;21.54;41.42;100281.50;5118956;27;20468;-56
2022/07/06 10:43:34;;;;;;;10.27;3.50;;;;;;;20.84;43.01;100281.03;5117498;27;20079;-55
2022/07/06 10:46:04;;;;;;;10.93;3.33;;;;;;;20.92;43.62;100285.06;5118393;27;20049;-56
2022/07/06 10:48:37;;;;;;;8.20;3.08;;;;;;;21.49;42.10;100278.81;5104071;28;20426;-56
2022/07/06 10:51:04;;;;;;;13.85;2.90;;;;;;;21.47;41.57;100280.22;5084825;28;20039;-57
2022/07/06 10:53:33;;;;;;;13.13;2.65;;;;;;;21.53;40.98;100288.03;5092135;28;20355;-56
2022/07/06 10:55:59;;;;;;;10.25;3.15;;;;;;;20.95;42.42;100284.50;5098385;28;20065;-56
2022/07/06 10:58:34;;;;;;;6.72;2.53;;;;;;;21.21;41.27;100282.34;5071472;28;20081;-55
2022/07/06 11:01:00;;;;;;;11.23;2.20;;;;;;;20.48;41.70;100281.28;5114763;28;20023;-56
2022/07/06 11:03:44;;;;;;;9.68;2.00;;;;;;;20.13;41.75;100290.47;5095885;28;20481;-56
2022/07/06 11:06:18;;;;;;;7.60;2.00;;;;;;;20.37;41.08;100280.53;5113138;28;20654;-55
2022/07/06 11:08:43;;;;;;;9.35;1.92;;;;;;;20.79;41.17;100279.19;5102493;28;20443;-55
2022/07/06 11:11:34;;;;;;;6.75;1.90;;;;;;;21.40;39.94;100279.75;5107740;28;20031;-55
2022/07/06 11:14:02;;;;;;;6.72;1.80;;;;;;;21.55;38.96;100285.03;5112956;27;20529;-56
2022/07/06 11:16:34;;;;;;;8.35;2.08;;;;;;;20.70;40.35;100278.16;5124459;27;20030;-55
2022/07/06 11:19:07;;;;;;;5.70;1.95;;;;;;;21.10;39.53;100284.38;5124389;27;20059;-55
2022/07/06 11:21:46;;;;;;;10.45;1.90;;;;;;;21.22;39.35;100284.00;5112754;27;20023;-56
2022/07/06 11:24:13;;;;;;;5.35;1.90;;;;;;;20.64;40.31;100279.28;5123318;27;20120;-56